createdAt,value
2018-02-19T00:02:01.908Z,50.64
2018-02-19T00:04:29.952Z,50.21
2018-02-19T00:06:57.397Z,51.07
2018-02-19T00:09:24.858Z,52.06
2018-02-19T00:11:52.703Z,51.65
2018-02-19T00:14:20.191Z,51.61
2018-02-19T00:16:47.799Z,50.61
2018-02-19T00:19:15.699Z,50.99
2018-02-19T00:21:43.162Z,51.35
2018-02-19T00:24:10.984Z,51.37
2018-02-19T00:26:38.508Z,51.50
2018-02-19T00:29:05.945Z,51.24
2018-02-19T00:31:33.455Z,51.25
2018-02-19T00:34:00.939Z,51.68
2018-02-19T00:36:28.535Z,51.00
2018-02-19T00:38:56.053Z,51.45
2018-02-19T00:41:23.578Z,51.54
2018-02-19T00:43:51.176Z,51.37
2018-02-19T00:46:18.814Z,51.26
2018-02-19T00:48:46.293Z,51.35
2018-02-19T00:51:13.759Z,51.53
2018-02-19T00:53:41.207Z,51.56
2018-02-19T00:56:08.887Z,51.86
2018-02-19T00:58:36.360Z,51.19
2018-02-19T01:01:04.909Z,51.67
2018-02-19T01:03:32.473Z,51.70
2018-02-19T01:05:59.938Z,51.01
2018-02-19T01:08:27.435Z,52.10
2018-02-19T01:10:54.886Z,52.06
2018-02-19T01:13:22.353Z,52.04
2018-02-19T01:15:50.002Z,51.84
2018-02-19T01:18:17.856Z,51.21
2018-02-19T01:20:45.477Z,50.61
2018-02-19T01:23:13.199Z,51.65
2018-02-19T01:25:40.774Z,51.72
2018-02-19T01:28:09.189Z,51.75
2018-02-19T01:30:37.255Z,51.88
2018-02-19T01:33:04.876Z,51.17
2018-02-19T01:35:32.376Z,51.55
2018-02-19T01:37:59.838Z,51.79
2018-02-19T01:40:27.386Z,52.25
2018-02-19T01:42:54.950Z,51.73
2018-02-19T01:45:23.426Z,53.00
2018-02-19T01:47:51.038Z,52.82
2018-02-19T01:50:18.541Z,52.65
2018-02-19T01:52:46.099Z,52.92
2018-02-19T01:55:13.659Z,53.65
2018-02-19T01:57:41.172Z,52.99
2018-02-19T02:00:31.618Z,52.80
2018-02-19T02:02:59.123Z,53.51
2018-02-19T02:05:26.618Z,54.13
2018-02-19T02:07:54.299Z,53.00
2018-02-19T02:10:21.778Z,52.75
2018-02-19T02:12:49.438Z,53.18
2018-02-19T02:15:18.137Z,54.13
2018-02-19T02:17:45.616Z,54.41
2018-02-19T02:20:13.229Z,54.54
2018-02-19T02:22:40.805Z,54.85
2018-02-19T02:25:08.261Z,54.01
2018-02-19T02:27:35.791Z,54.02
2018-02-19T02:30:03.265Z,53.14
2018-02-19T02:32:30.726Z,54.48
2018-02-19T02:34:58.242Z,53.28
2018-02-19T02:37:25.708Z,53.69
2018-02-19T02:39:53.430Z,53.26
2018-02-19T02:42:20.927Z,53.08
2018-02-19T02:44:48.353Z,52.87
2018-02-19T02:47:15.905Z,53.49
2018-02-19T02:49:43.410Z,53.21
2018-02-19T02:52:10.941Z,53.20
2018-02-19T02:54:38.646Z,53.20
2018-02-19T02:57:06.556Z,54.68
2018-02-19T02:59:34.039Z,53.92
2018-02-19T03:02:01.837Z,54.16
2018-02-19T03:04:29.359Z,53.57
2018-02-19T03:06:56.796Z,54.00
2018-02-19T03:09:24.244Z,54.33
2018-02-19T03:11:51.820Z,54.11
2018-02-19T03:14:19.294Z,54.41
2018-02-19T03:16:46.731Z,54.02
2018-02-19T03:19:14.162Z,54.44
2018-02-19T03:21:41.622Z,53.48
2018-02-19T03:24:09.062Z,54.23
2018-02-19T03:26:36.737Z,54.27
2018-02-19T03:29:04.281Z,53.90
2018-02-19T03:31:31.740Z,53.37
2018-02-19T03:33:59.206Z,53.51
2018-02-19T03:36:26.780Z,54.29
2018-02-19T03:38:54.254Z,54.07
2018-02-19T03:41:22.017Z,54.94
2018-02-19T03:43:49.671Z,54.04
2018-02-19T03:46:17.206Z,53.74
2018-02-19T03:48:44.659Z,54.27
2018-02-19T03:51:12.107Z,54.30
2018-02-19T03:53:39.603Z,54.29
2018-02-19T03:56:07.039Z,54.41
2018-02-19T03:58:34.480Z,54.71
2018-02-19T04:01:01.921Z,53.57
2018-02-19T04:03:29.370Z,54.94
2018-02-19T04:05:56.971Z,54.90
2018-02-19T04:08:24.642Z,53.62
2018-02-19T04:10:52.109Z,53.95
2018-02-19T04:13:19.658Z,58.00
2018-02-19T04:15:47.177Z,60.56
2018-02-19T04:18:15.406Z,60.96
2018-02-19T04:20:42.840Z,60.83
2018-02-19T04:23:10.423Z,57.56
2018-02-19T04:25:37.862Z,56.88
2018-02-19T04:28:05.299Z,55.86
2018-02-19T04:30:32.759Z,54.45
2018-02-19T04:33:00.226Z,55.45
2018-02-19T04:35:27.675Z,55.46
2018-02-19T04:37:55.110Z,55.86
2018-02-19T04:40:22.600Z,56.10
2018-02-19T04:43:00.721Z,55.58
2018-02-19T04:45:31.144Z,54.97
2018-02-19T04:47:58.744Z,55.29
2018-02-19T04:50:26.555Z,56.00
2018-02-19T04:52:53.998Z,56.10
2018-02-19T04:55:21.491Z,56.37
2018-02-19T04:57:48.927Z,56.28
2018-02-19T05:00:16.395Z,55.88
2018-02-19T05:02:43.822Z,56.71
2018-02-19T05:05:11.333Z,55.46
2018-02-19T05:07:38.893Z,55.00
2018-02-19T05:10:06.338Z,55.20
2018-02-19T05:12:33.791Z,56.33
2018-02-19T05:15:01.241Z,56.17
2018-02-19T05:17:28.678Z,56.02
2018-02-19T05:19:56.681Z,57.17
2018-02-19T05:22:24.199Z,56.99
2018-02-19T05:24:51.661Z,55.69
2018-02-19T05:27:19.154Z,56.08
2018-02-19T05:29:46.652Z,56.29
2018-02-19T05:32:14.098Z,56.45
2018-02-19T05:34:41.555Z,55.90
2018-02-19T05:37:09.130Z,56.48
2018-02-19T05:39:36.784Z,56.43
2018-02-19T05:42:04.252Z,57.37
2018-02-19T05:44:31.707Z,56.18
2018-02-19T05:46:59.220Z,56.49
2018-02-19T05:49:26.871Z,55.95
2018-02-19T05:51:54.492Z,56.58
2018-02-19T05:54:21.924Z,56.68
2018-02-19T05:56:49.746Z,56.49
2018-02-19T05:59:17.450Z,55.94
2018-02-19T06:01:44.906Z,56.03
2018-02-19T06:04:12.366Z,56.30
2018-02-19T06:06:39.897Z,56.33
2018-02-19T06:09:07.326Z,56.88
2018-02-19T06:11:35.553Z,56.17
2018-02-19T06:14:03.027Z,56.64
2018-02-19T06:16:30.489Z,57.03
2018-02-19T06:18:57.928Z,56.99
2018-02-19T06:21:25.585Z,56.09
2018-02-19T06:23:53.037Z,56.23
2018-02-19T06:26:20.501Z,56.45
2018-02-19T06:28:47.985Z,56.16
2018-02-19T06:31:15.421Z,56.86
2018-02-19T06:33:43.011Z,56.59
2018-02-19T06:36:10.453Z,56.67
2018-02-19T06:38:37.897Z,56.04
2018-02-19T06:41:05.333Z,55.64
2018-02-19T06:43:32.802Z,56.02
2018-02-19T06:46:00.262Z,56.53
2018-02-19T06:48:27.709Z,56.54
2018-02-19T06:50:55.195Z,56.66
2018-02-19T06:53:22.720Z,57.07
2018-02-19T06:55:50.499Z,56.98
2018-02-19T06:58:17.956Z,56.41
2018-02-19T07:00:45.392Z,57.15
2018-02-19T07:03:12.837Z,56.91
2018-02-19T07:05:40.330Z,56.28
2018-02-19T07:08:07.790Z,56.25
2018-02-19T07:10:35.257Z,56.33
2018-02-19T07:13:02.745Z,57.09
2018-02-19T07:15:30.173Z,56.27
2018-02-19T07:17:57.602Z,56.66
2018-02-19T07:33:16.095Z,55.62
2018-02-19T07:35:43.549Z,55.90
2018-02-19T07:38:10.980Z,56.84
2018-02-19T07:40:38.482Z,56.74
2018-02-19T07:43:06.012Z,55.53
2018-02-19T07:45:33.592Z,55.72
2018-02-19T07:48:01.033Z,55.96
2018-02-19T07:50:28.501Z,55.83
2018-02-19T07:52:56.077Z,55.71
2018-02-19T07:55:23.516Z,54.98
2018-02-19T07:57:50.993Z,55.35
2018-02-19T08:00:18.814Z,54.60
2018-02-19T08:02:46.492Z,55.42
2018-02-19T08:05:13.947Z,55.83
2018-02-19T08:07:41.470Z,56.36
2018-02-19T08:10:09.083Z,55.53
2018-02-19T08:12:36.561Z,55.61
2018-02-19T08:15:03.996Z,55.45
2018-02-19T08:17:31.504Z,55.18
2018-02-19T08:19:58.974Z,55.38
2018-02-19T08:22:26.441Z,55.10
2018-02-19T08:24:54.059Z,54.80
2018-02-19T08:27:21.529Z,55.20
2018-02-19T08:29:49.014Z,55.46
2018-02-19T08:32:16.470Z,55.50
2018-02-19T08:34:43.922Z,55.04
2018-02-19T08:37:11.386Z,54.98
2018-02-19T08:39:38.859Z,54.49
2018-02-19T08:42:06.317Z,54.81
2018-02-19T08:44:33.836Z,54.24
2018-02-19T08:47:01.522Z,54.23
2018-02-19T08:49:29.037Z,53.02
2018-02-19T08:51:56.489Z,53.25
2018-02-19T08:54:23.940Z,52.58
2018-02-19T08:56:51.380Z,52.59
2018-02-19T08:59:18.841Z,52.60
2018-02-19T09:01:46.286Z,52.11
2018-02-19T09:04:13.778Z,51.71
2018-02-19T09:06:41.926Z,51.61
2018-02-19T09:09:09.385Z,51.94
2018-02-19T09:11:36.837Z,51.64
2018-02-19T09:14:04.475Z,52.46
2018-02-19T09:16:31.982Z,52.03
2018-02-19T09:18:59.647Z,53.12
2018-02-19T09:21:27.848Z,52.08
2018-02-19T09:23:55.318Z,51.08
2018-02-19T09:26:22.802Z,50.78
2018-02-19T09:28:50.230Z,51.24
2018-02-19T09:31:17.716Z,50.67
2018-02-19T09:33:45.188Z,50.31
2018-02-19T09:36:12.957Z,50.05
2018-02-19T09:38:40.424Z,50.15
2018-02-19T09:41:08.067Z,50.43
2018-02-19T09:43:35.503Z,49.77
2018-02-19T09:46:02.953Z,50.07
2018-02-19T09:48:30.389Z,50.00
2018-02-19T09:50:58.004Z,49.22
2018-02-19T09:53:25.551Z,48.98
2018-02-19T09:55:53.112Z,48.52
2018-02-19T09:58:20.597Z,47.87
2018-02-19T10:00:48.059Z,47.75
2018-02-19T10:03:15.498Z,47.74
2018-02-19T10:05:43.121Z,47.23
2018-02-19T10:08:10.525Z,47.51
2018-02-19T10:10:37.974Z,48.67
2018-02-19T10:13:05.674Z,48.02
2018-02-19T10:15:33.258Z,47.51
2018-02-19T10:18:00.789Z,47.37
2018-02-19T10:20:28.241Z,47.68
2018-02-19T10:22:55.706Z,46.41
2018-02-19T10:25:23.156Z,46.45
2018-02-19T10:27:50.587Z,46.88
2018-02-19T10:30:18.119Z,47.44
2018-02-19T10:32:45.549Z,46.47
2018-02-19T10:35:13.012Z,44.95
2018-02-19T10:37:40.446Z,45.01
2018-02-19T10:40:13.753Z,45.16
2018-02-19T10:42:41.210Z,45.04
2018-02-19T10:45:08.664Z,45.33
2018-02-19T10:47:37.125Z,45.85
2018-02-19T10:50:04.580Z,45.27
2018-02-19T10:52:32.038Z,46.37
2018-02-19T10:54:59.472Z,46.25
2018-02-19T10:57:26.925Z,46.46
2018-02-19T10:59:54.361Z,46.23
2018-02-19T11:02:21.861Z,44.92
2018-02-19T11:04:49.366Z,45.59
2018-02-19T11:07:16.886Z,45.90
2018-02-19T11:09:44.441Z,45.09
2018-02-19T11:12:12.105Z,45.74
2018-02-19T11:14:39.552Z,45.77
2018-02-19T11:17:07.022Z,45.90
2018-02-19T11:19:34.785Z,46.19
2018-02-19T11:22:02.277Z,46.40
2018-02-19T11:24:29.911Z,46.29
2018-02-19T11:26:57.429Z,46.74
2018-02-19T11:29:24.885Z,45.80
2018-02-19T11:31:52.512Z,45.92
2018-02-19T11:34:20.394Z,46.27
2018-02-19T11:36:47.872Z,45.93
2018-02-19T11:39:15.507Z,46.49
2018-02-19T11:41:42.954Z,47.72
2018-02-19T11:44:10.407Z,48.27
2018-02-19T11:46:38.225Z,46.92
2018-02-19T11:49:05.715Z,46.40
2018-02-19T11:51:33.169Z,46.19
2018-02-19T11:54:00.609Z,46.28
2018-02-19T11:56:28.804Z,45.75
2018-02-19T11:58:56.291Z,46.65
2018-02-19T12:01:23.766Z,46.35
2018-02-19T12:03:51.222Z,45.96
2018-02-19T12:06:18.685Z,45.16
2018-02-19T12:08:46.133Z,45.22
2018-02-19T12:11:13.693Z,46.67
2018-02-19T12:13:41.168Z,46.42
2018-02-19T12:16:08.617Z,45.83
2018-02-19T12:18:36.081Z,46.74
2018-02-19T12:21:03.530Z,46.49
2018-02-19T12:23:31.087Z,45.85
2018-02-19T12:25:58.821Z,46.57
2018-02-19T12:28:27.042Z,45.39
2018-02-19T12:30:54.686Z,45.69
2018-02-19T12:33:22.140Z,46.15
2018-02-19T12:35:49.663Z,45.61
2018-02-19T12:38:17.162Z,45.84
2018-02-19T12:40:44.719Z,45.44
2018-02-19T12:43:12.193Z,45.56
2018-02-19T12:45:39.632Z,44.50
2018-02-19T12:48:07.082Z,45.52
2018-02-19T12:50:34.754Z,44.86
2018-02-19T12:53:02.232Z,44.32
2018-02-19T12:55:31.113Z,45.39
2018-02-19T12:57:58.935Z,45.32
2018-02-19T13:00:26.461Z,44.57
2018-02-19T13:02:54.054Z,45.19
2018-02-19T13:05:21.557Z,45.44
2018-02-19T13:07:49.002Z,45.71
2018-02-19T13:10:16.442Z,45.91
2018-02-19T13:12:43.899Z,45.12
2018-02-19T13:15:11.350Z,44.66
2018-02-19T13:17:38.828Z,44.49
2018-02-19T13:20:07.679Z,44.72
2018-02-19T13:22:35.203Z,44.77
2018-02-19T13:25:02.845Z,45.38
2018-02-19T13:27:30.429Z,45.67
2018-02-19T13:29:58.111Z,47.43
2018-02-19T13:32:25.640Z,46.47
2018-02-19T13:34:53.069Z,46.91
2018-02-19T13:37:20.707Z,47.21
2018-02-19T13:39:48.222Z,45.84
2018-02-19T13:42:16.050Z,45.17
2018-02-19T13:44:43.517Z,44.45
2018-02-19T13:47:10.971Z,44.09
2018-02-19T13:49:38.453Z,44.95
2018-02-19T13:52:05.894Z,44.60
2018-02-19T13:54:33.390Z,44.48
2018-02-19T13:57:00.856Z,44.10
2018-02-19T13:59:29.254Z,43.79
2018-02-19T14:01:56.705Z,43.61
2018-02-19T14:04:24.185Z,43.26
2018-02-19T14:06:51.629Z,43.07
2018-02-19T14:09:19.194Z,43.57
2018-02-19T14:11:47.061Z,43.39
2018-02-19T14:14:14.926Z,45.46
2018-02-19T14:16:43.361Z,46.81
2018-02-19T14:19:16.621Z,46.77
2018-02-19T14:21:47.343Z,47.46
2018-02-19T14:24:19.656Z,46.31
2018-02-19T14:26:49.522Z,46.66
2018-02-19T14:29:23.904Z,47.03
2018-02-19T14:31:52.288Z,46.77
2018-02-19T14:34:20.334Z,47.09
2018-02-19T14:36:47.822Z,47.26
2018-02-19T14:39:16.176Z,46.54
2018-02-19T14:41:43.657Z,47.10
2018-02-19T14:44:11.099Z,47.21
2018-02-19T14:46:38.607Z,47.03
2018-02-19T14:49:06.057Z,47.79
2018-02-19T14:51:33.590Z,48.11
2018-02-19T14:54:01.115Z,47.77
2018-02-19T14:56:29.504Z,48.57
2018-02-19T14:58:56.969Z,47.91
2018-02-19T15:01:24.517Z,47.38
2018-02-19T15:03:52.065Z,47.85
2018-02-19T15:06:19.511Z,47.99
2018-02-19T15:08:51.957Z,47.63
2018-02-19T15:11:25.190Z,46.87
2018-02-19T15:13:53.328Z,46.81
2018-02-19T15:16:20.771Z,46.63
2018-02-19T15:18:48.278Z,46.44
2018-02-19T15:21:15.745Z,46.78
2018-02-19T15:23:43.218Z,46.64
2018-02-19T15:38:59.318Z,47.28
2018-02-19T15:41:26.765Z,47.71
2018-02-19T15:43:54.629Z,49.39
2018-02-19T15:46:22.477Z,49.65
2018-02-19T15:48:49.907Z,49.78
2018-02-19T15:51:17.533Z,49.70
2018-02-19T15:53:44.987Z,49.45
2018-02-19T15:56:12.658Z,50.07
2018-02-19T15:58:40.229Z,48.82
2018-02-19T16:01:07.973Z,48.74
2018-02-19T16:03:35.636Z,48.24
2018-02-19T16:06:03.117Z,48.63
2018-02-19T16:08:30.578Z,48.99
2018-02-19T16:10:58.037Z,49.15
2018-02-19T16:13:25.492Z,47.64
2018-02-19T16:15:53.005Z,47.88
2018-02-19T16:18:20.709Z,47.50
2018-02-19T16:20:48.293Z,47.69
2018-02-19T16:23:15.770Z,47.18
2018-02-19T16:25:43.210Z,47.21
2018-02-19T16:28:11.647Z,47.74
2018-02-19T16:30:40.802Z,47.73
2018-02-19T16:33:08.298Z,48.86
2018-02-19T16:35:35.898Z,50.23
2018-02-19T16:38:03.940Z,50.84
2018-02-19T16:40:31.389Z,51.80
2018-02-19T16:42:59.517Z,51.31
2018-02-19T16:45:30.402Z,50.89
2018-02-19T16:48:00.284Z,50.57
2018-02-19T16:50:27.898Z,49.87
2018-02-19T16:52:55.327Z,49.54
2018-02-19T16:55:22.879Z,49.29
2018-02-19T16:57:50.340Z,49.64
2018-02-19T17:00:17.849Z,49.83
2018-02-19T17:02:45.376Z,50.35
2018-02-19T17:05:13.603Z,51.07
2018-02-19T17:07:41.250Z,52.16
2018-02-19T17:10:09.998Z,51.09
2018-02-19T17:12:38.316Z,51.53
2018-02-19T17:15:05.912Z,50.96
2018-02-19T17:17:33.523Z,51.12
2018-02-19T17:20:01.674Z,51.02
2018-02-19T17:22:30.150Z,51.55
2018-02-19T17:24:57.642Z,51.56
2018-02-19T17:27:25.099Z,51.43
2018-02-19T17:29:52.540Z,50.82
2018-02-19T17:32:20.001Z,50.98
2018-02-19T17:34:50.841Z,51.43
2018-02-19T17:37:18.298Z,49.54
2018-02-19T17:39:46.738Z,50.86
2018-02-19T17:42:14.184Z,50.85
2018-02-19T17:44:41.647Z,50.24
2018-02-19T17:47:09.100Z,49.94
2018-02-19T17:49:36.554Z,50.71
2018-02-19T17:52:04.009Z,50.73
2018-02-19T17:54:31.466Z,50.33
2018-02-19T17:56:59.042Z,50.81
2018-02-19T17:59:26.543Z,50.99
2018-02-19T18:01:53.984Z,51.52
2018-02-19T18:04:21.458Z,51.89
2018-02-19T18:06:48.923Z,50.50
2018-02-19T18:09:16.625Z,50.30
2018-02-19T18:11:44.166Z,50.44
2018-02-19T18:14:11.623Z,50.38
2018-02-19T18:16:39.054Z,49.24
2018-02-19T18:19:06.498Z,49.55
2018-02-19T18:21:34.018Z,49.61
2018-02-19T18:24:01.464Z,49.68
2018-02-19T18:26:28.955Z,51.39
2018-02-19T18:28:56.389Z,51.29
2018-02-19T18:31:23.845Z,50.13
2018-02-19T18:33:51.308Z,50.28
2018-02-19T18:36:38.101Z,51.15
2018-02-19T18:39:05.680Z,51.59
2018-02-19T18:41:33.148Z,50.97
2018-02-19T18:44:01.442Z,51.23
2018-02-19T18:46:28.873Z,51.87
2018-02-19T18:48:56.325Z,51.01
2018-02-19T18:51:23.780Z,50.61
2018-02-19T18:53:51.278Z,51.06
2018-02-19T18:56:18.708Z,49.57
2018-02-19T18:58:46.211Z,49.34
2018-02-19T19:01:13.667Z,49.47
2018-02-19T19:03:41.122Z,48.85
2018-02-19T19:06:08.565Z,49.84
2018-02-19T19:08:47.813Z,49.84
2018-02-19T19:11:15.267Z,50.10
2018-02-19T19:13:42.904Z,49.97
2018-02-19T19:16:10.861Z,50.38
2018-02-19T19:18:38.293Z,49.57
2018-02-19T19:21:05.776Z,49.87
2018-02-19T19:23:33.237Z,50.27
2018-02-19T19:26:00.770Z,50.28
2018-02-19T19:28:28.431Z,49.23
2018-02-19T19:30:55.900Z,48.74
2018-02-19T19:33:23.381Z,48.58
2018-02-19T19:35:50.826Z,48.68
2018-02-19T19:38:18.274Z,49.56
2018-02-19T19:40:45.800Z,49.60
2018-02-19T19:43:13.337Z,49.74
2018-02-19T19:45:40.795Z,50.31
2018-02-19T19:48:08.654Z,50.16
2018-02-19T19:50:37.056Z,49.58
2018-02-19T19:53:04.518Z,50.21
2018-02-19T19:55:32.009Z,50.31
2018-02-19T19:57:59.541Z,49.20
2018-02-19T20:00:27.062Z,49.79
2018-02-19T20:02:54.559Z,49.76
2018-02-19T20:05:21.995Z,49.76
2018-02-19T20:07:49.476Z,49.74
2018-02-19T20:10:16.938Z,49.12
2018-02-19T20:12:44.417Z,49.15
2018-02-19T20:15:11.934Z,48.67
2018-02-19T20:17:40.746Z,49.45
2018-02-19T20:20:08.287Z,48.99
2018-02-19T20:22:35.757Z,49.38
2018-02-19T20:25:03.206Z,48.80
2018-02-19T20:27:31.139Z,49.80
2018-02-19T20:29:58.601Z,49.29
2018-02-19T20:32:26.034Z,48.70
2018-02-19T20:34:53.743Z,49.32
2018-02-19T20:37:21.201Z,50.13
2018-02-19T20:39:50.071Z,50.79
2018-02-19T20:42:17.927Z,49.80
2018-02-19T20:44:45.362Z,49.49
2018-02-19T20:47:12.817Z,49.91
2018-02-19T20:49:40.285Z,49.33
2018-02-19T20:52:07.758Z,49.83
2018-02-19T20:54:35.213Z,51.16
2018-02-19T20:57:02.641Z,51.21
2018-02-19T20:59:30.230Z,51.46
2018-02-19T21:01:57.661Z,52.01
2018-02-19T21:04:25.197Z,50.92
2018-02-19T21:06:52.662Z,50.15
2018-02-19T21:09:20.096Z,50.04
2018-02-19T21:11:47.629Z,50.30
2018-02-19T21:14:15.104Z,50.41
2018-02-19T21:16:42.696Z,50.93
2018-02-19T21:19:10.142Z,51.71
2018-02-19T21:21:38.481Z,51.66
2018-02-19T21:24:05.965Z,50.92
2018-02-19T21:26:33.406Z,51.64
2018-02-19T21:29:00.887Z,50.83
2018-02-19T21:31:28.344Z,50.57
2018-02-19T21:33:55.813Z,51.49
2018-02-19T21:36:23.243Z,51.50
2018-02-19T21:38:50.693Z,51.00
2018-02-19T21:41:18.151Z,51.00
2018-02-19T21:43:45.617Z,50.17
2018-02-19T21:46:13.080Z,50.51
2018-02-19T21:48:40.547Z,50.59
2018-02-19T21:51:07.990Z,50.90
2018-02-19T21:53:35.817Z,50.45
2018-02-19T21:56:04.094Z,50.12
2018-02-19T21:58:31.511Z,50.36
2018-02-19T22:00:58.951Z,50.15
2018-02-19T22:03:26.546Z,49.17
2018-02-19T22:05:54.001Z,49.67
2018-02-19T22:08:21.467Z,49.94
2018-02-19T22:10:49.126Z,49.69
2018-02-19T22:13:16.557Z,50.60
2018-02-19T22:15:44.450Z,50.39
2018-02-19T22:18:12.002Z,50.36
2018-02-19T22:20:39.557Z,50.96
2018-02-19T22:23:07.017Z,50.02
2018-02-19T22:25:34.555Z,50.61
2018-02-19T22:28:01.997Z,50.79
2018-02-19T22:30:29.462Z,50.26
2018-02-19T22:32:56.913Z,49.34
2018-02-19T22:35:24.338Z,50.31
2018-02-19T22:37:51.765Z,50.02
2018-02-19T22:40:19.221Z,49.97
2018-02-19T22:42:47.645Z,50.10
2018-02-19T22:45:15.218Z,50.82
2018-02-19T22:47:42.688Z,49.72
2018-02-19T22:50:10.472Z,50.37
2018-02-19T22:52:37.897Z,49.91
2018-02-19T22:55:05.330Z,49.61
2018-02-19T22:57:32.781Z,49.53
2018-02-19T23:00:00.244Z,50.24
2018-02-19T23:02:27.691Z,49.59
2018-02-19T23:04:55.836Z,49.97
2018-02-19T23:07:23.324Z,50.38
2018-02-19T23:09:50.782Z,51.69
2018-02-19T23:12:18.215Z,51.42
2018-02-19T23:14:45.739Z,49.96
2018-02-19T23:17:13.227Z,50.61
2018-02-19T23:19:40.829Z,51.09
2018-02-19T23:35:04.961Z,49.85
2018-02-19T23:37:32.526Z,49.36
2018-02-19T23:40:00.048Z,48.93
2018-02-19T23:42:27.516Z,49.37
2018-02-19T23:44:55.982Z,49.32
2018-02-19T23:47:23.450Z,49.03
2018-02-19T23:49:50.907Z,48.79
2018-02-19T23:52:18.403Z,49.50
2018-02-19T23:54:46.098Z,49.30
2018-02-19T23:57:13.793Z,49.20
2018-02-19T23:59:41.442Z,49.40
